sensor_id;sensor_type;location;lat;lon;timestamp;temperature;humidity
7030;DHT22;3556;53.500;10.176;2024-02-23T00:01:35;10.00;1.00
7030;DHT22;3556;53.500;10.176;2024-02-23T00:04:00;10.00;1.00
7030;DHT22;3556;53.500;10.176;2024-02-23T00:06:28;10.00;1.00
7030;DHT22;3556;53.500;10.176;2024-02-23T00:08:54;10.00;11.60
7030;DHT22;3556;53.500;10.176;2024-02-23T00:11:20;10.00;99.90
7030;DHT22;3556;53.500;10.176;2024-02-23T00:13:46;10.00;99.90
7030;DHT22;3556;53.500;10.176;2024-02-23T00:16:12;9.90;99.90
7030;DHT22;3556;53.500;10.176;2024-02-23T00:18:38;9.80;1.00
7030;DHT22;3556;53.500;10.176;2024-02-23T00:21:04;9.70;1.00
7030;DHT22;3556;53.500;10.176;2024-02-23T00:23:29;9.70;1.00
7030;DHT22;3556;53.500;10.176;2024-02-23T00:25:55;9.60;1.00
7030;DHT22;3556;53.500;10.176;2024-02-23T00:28:21;9.50;99.90
7030;DHT22;3556;53.500;10.176;2024-02-23T00:30:47;9.50;99.90
7030;DHT22;3556;53.500;10.176;2024-02-23T00:33:13;9.40;99.90
7030;DHT22;3556;53.500;10.176;2024-02-23T00:35:38;9.30;99.90
7030;DHT22;3556;53.500;10.176;2024-02-23T00:38:04;9.30;1.00
7030;DHT22;3556;53.500;10.176;2024-02-23T00:40:30;9.30;99.90
7030;DHT22;3556;53.500;10.176;2024-02-23T00:42:55;9.30;1.00
7030;DHT22;3556;53.500;10.176;2024-02-23T00:45:21;9.30;1.00
7030;DHT22;3556;53.500;10.176;2024-02-23T00:47:47;9.20;1.00
7030;DHT22;3556;53.500;10.176;2024-02-23T00:50:13;9.20;1.00
7030;DHT22;3556;53.500;10.176;2024-02-23T00:52:39;9.20;1.00
7030;DHT22;3556;53.500;10.176;2024-02-23T00:55:05;9.20;1.00
7030;DHT22;3556;53.500;10.176;2024-02-23T00:57:31;9.20;20.00
7030;DHT22;3556;53.500;10.176;2024-02-23T00:59:57;9.20;27.90
7030;DHT22;3556;53.500;10.176;2024-02-23T01:02:23;9.20;1.00
7030;DHT22;3556;53.500;10.176;2024-02-23T01:04:48;9.20;99.90
7030;DHT22;3556;53.500;10.176;2024-02-23T01:07:14;9.20;1.00
7030;DHT22;3556;53.500;10.176;2024-02-23T01:09:39;9.10;99.90
7030;DHT22;3556;53.500;10.176;2024-02-23T01:12:05;8.90;1.00
7030;DHT22;3556;53.500;10.176;2024-02-23T01:14:31;8.50;99.90
7030;DHT22;3556;53.500;10.176;2024-02-23T01:16:56;7.80;1.00
7030;DHT22;3556;53.500;10.176;2024-02-23T01:19:22;7.40;1.00
7030;DHT22;3556;53.500;10.176;2024-02-23T01:21:49;7.10;84.60
7030;DHT22;3556;53.500;10.176;2024-02-23T01:24:21;6.90;99.90
7030;DHT22;3556;53.500;10.176;2024-02-23T01:26:46;6.70;99.90
7030;DHT22;3556;53.500;10.176;2024-02-23T01:29:12;6.60;99.90
7030;DHT22;3556;53.500;10.176;2024-02-23T01:31:38;6.60;99.90
7030;DHT22;3556;53.500;10.176;2024-02-23T01:34:03;6.50;99.90
7030;DHT22;3556;53.500;10.176;2024-02-23T01:36:29;6.50;99.90
7030;DHT22;3556;53.500;10.176;2024-02-23T01:38:55;6.60;99.90
7030;DHT22;3556;53.500;10.176;2024-02-23T01:41:20;6.50;99.90
7030;DHT22;3556;53.500;10.176;2024-02-23T01:43:46;6.60;99.90
7030;DHT22;3556;53.500;10.176;2024-02-23T01:46:12;6.60;99.90
7030;DHT22;3556;53.500;10.176;2024-02-23T01:48:39;6.60;99.90
7030;DHT22;3556;53.500;10.176;2024-02-23T01:51:04;6.60;99.90
7030;DHT22;3556;53.500;10.176;2024-02-23T01:53:30;6.60;99.90
7030;DHT22;3556;53.500;10.176;2024-02-23T01:55:57;6.60;99.90
7030;DHT22;3556;53.500;10.176;2024-02-23T01:58:24;6.50;99.90
7030;DHT22;3556;53.500;10.176;2024-02-23T02:00:50;6.50;99.90
7030;DHT22;3556;53.500;10.176;2024-02-23T02:03:16;6.60;99.90
7030;DHT22;3556;53.500;10.176;2024-02-23T02:05:41;6.50;99.90
7030;DHT22;3556;53.500;10.176;2024-02-23T02:08:07;6.60;99.90
7030;DHT22;3556;53.500;10.176;2024-02-23T02:10:33;6.60;99.90
7030;DHT22;3556;53.500;10.176;2024-02-23T02:13:05;6.60;99.90
7030;DHT22;3556;53.500;10.176;2024-02-23T02:15:30;6.60;99.90
7030;DHT22;3556;53.500;10.176;2024-02-23T02:17:56;6.60;99.90
7030;DHT22;3556;53.500;10.176;2024-02-23T02:20:24;6.70;99.90
7030;DHT22;3556;53.500;10.176;2024-02-23T02:22:50;6.70;99.90
7030;DHT22;3556;53.500;10.176;2024-02-23T02:25:16;6.60;99.90
7030;DHT22;3556;53.500;10.176;2024-02-23T02:27:42;6.60;59.90
7030;DHT22;3556;53.500;10.176;2024-02-23T02:30:11;6.60;68.40
7030;DHT22;3556;53.500;10.176;2024-02-23T02:32:37;6.60;25.40
7030;DHT22;3556;53.500;10.176;2024-02-23T02:35:02;6.60;1.00
7030;DHT22;3556;53.500;10.176;2024-02-23T02:37:29;6.50;1.00
7030;DHT22;3556;53.500;10.176;2024-02-23T02:39:54;6.50;1.00
7030;DHT22;3556;53.500;10.176;2024-02-23T02:42:20;6.50;1.00
7030;DHT22;3556;53.500;10.176;2024-02-23T02:44:45;6.50;1.00
7030;DHT22;3556;53.500;10.176;2024-02-23T02:47:11;6.50;1.00
7030;DHT22;3556;53.500;10.176;2024-02-23T02:49:39;6.50;1.00
7030;DHT22;3556;53.500;10.176;2024-02-23T02:52:04;6.50;1.00
7030;DHT22;3556;53.500;10.176;2024-02-23T02:54:30;6.40;1.00
7030;DHT22;3556;53.500;10.176;2024-02-23T02:56:56;6.40;1.00
7030;DHT22;3556;53.500;10.176;2024-02-23T02:59:22;6.40;1.00
7030;DHT22;3556;53.500;10.176;2024-02-23T03:01:48;6.40;1.00
7030;DHT22;3556;53.500;10.176;2024-02-23T03:04:14;6.30;1.00
7030;DHT22;3556;53.500;10.176;2024-02-23T03:06:40;6.30;1.00
7030;DHT22;3556;53.500;10.176;2024-02-23T03:09:05;6.20;1.00
7030;DHT22;3556;53.500;10.176;2024-02-23T03:11:32;6.20;1.00
7030;DHT22;3556;53.500;10.176;2024-02-23T03:13:58;6.20;1.00
7030;DHT22;3556;53.500;10.176;2024-02-23T03:16:23;6.10;1.00
7030;DHT22;3556;53.500;10.176;2024-02-23T03:18:51;6.10;1.00
7030;DHT22;3556;53.500;10.176;2024-02-23T03:21:19;6.10;1.00
7030;DHT22;3556;53.500;10.176;2024-02-23T03:23:45;5.90;98.70
7030;DHT22;3556;53.500;10.176;2024-02-23T03:26:10;5.90;99.90
7030;DHT22;3556;53.500;10.176;2024-02-23T03:28:36;5.80;99.90
7030;DHT22;3556;53.500;10.176;2024-02-23T03:31:02;5.80;50.50
7030;DHT22;3556;53.500;10.176;2024-02-23T03:33:27;5.80;15.90
7030;DHT22;3556;53.500;10.176;2024-02-23T03:35:53;5.80;11.10
7030;DHT22;3556;53.500;10.176;2024-02-23T03:38:19;5.80;37.70
7030;DHT22;3556;53.500;10.176;2024-02-23T03:40:44;5.80;31.90
7030;DHT22;3556;53.500;10.176;2024-02-23T03:43:10;5.80;73.10
7030;DHT22;3556;53.500;10.176;2024-02-23T03:45:36;5.80;99.90
7030;DHT22;3556;53.500;10.176;2024-02-23T03:48:03;5.80;98.70
7030;DHT22;3556;53.500;10.176;2024-02-23T03:50:30;5.80;81.30
7030;DHT22;3556;53.500;10.176;2024-02-23T03:52:56;5.80;56.00
7030;DHT22;3556;53.500;10.176;2024-02-23T03:55:21;5.70;30.20
7030;DHT22;3556;53.500;10.176;2024-02-23T03:57:48;5.70;64.40
7030;DHT22;3556;53.500;10.176;2024-02-23T04:00:14;5.60;90.40
7030;DHT22;3556;53.500;10.176;2024-02-23T04:02:39;5.60;71.40
7030;DHT22;3556;53.500;10.176;2024-02-23T04:05:06;5.50;53.80
7030;DHT22;3556;53.500;10.176;2024-02-23T04:07:31;5.50;27.10
7030;DHT22;3556;53.500;10.176;2024-02-23T04:09:57;5.40;49.10
7030;DHT22;3556;53.500;10.176;2024-02-23T04:12:22;5.40;33.40
7030;DHT22;3556;53.500;10.176;2024-02-23T04:14:48;5.30;34.40
7030;DHT22;3556;53.500;10.176;2024-02-23T04:17:14;5.30;65.40
7030;DHT22;3556;53.500;10.176;2024-02-23T04:19:43;5.30;92.00
7030;DHT22;3556;53.500;10.176;2024-02-23T04:22:09;5.30;98.60
7030;DHT22;3556;53.500;10.176;2024-02-23T04:24:38;5.30;99.90
7030;DHT22;3556;53.500;10.176;2024-02-23T04:27:05;5.30;99.90
7030;DHT22;3556;53.500;10.176;2024-02-23T04:29:31;5.30;60.70
7030;DHT22;3556;53.500;10.176;2024-02-23T04:31:58;5.30;43.50
7030;DHT22;3556;53.500;10.176;2024-02-23T04:34:24;5.30;10.50
7030;DHT22;3556;53.500;10.176;2024-02-23T04:36:50;5.30;10.30
7030;DHT22;3556;53.500;10.176;2024-02-23T04:39:15;5.30;1.00
7030;DHT22;3556;53.500;10.176;2024-02-23T04:41:41;5.30;36.80
7030;DHT22;3556;53.500;10.176;2024-02-23T04:44:06;5.30;32.00
7030;DHT22;3556;53.500;10.176;2024-02-23T04:46:32;5.30;55.30
7030;DHT22;3556;53.500;10.176;2024-02-23T04:48:59;5.30;64.90
7030;DHT22;3556;53.500;10.176;2024-02-23T04:51:25;5.30;48.90
7030;DHT22;3556;53.500;10.176;2024-02-23T04:53:51;5.40;16.10
7030;DHT22;3556;53.500;10.176;2024-02-23T04:56:16;5.40;8.00
7030;DHT22;3556;53.500;10.176;2024-02-23T04:58:43;5.50;1.00
7030;DHT22;3556;53.500;10.176;2024-02-23T05:01:09;5.50;1.00
7030;DHT22;3556;53.500;10.176;2024-02-23T05:03:36;5.50;1.00
7030;DHT22;3556;53.500;10.176;2024-02-23T05:06:02;5.50;1.00
7030;DHT22;3556;53.500;10.176;2024-02-23T05:08:28;5.50;1.00
7030;DHT22;3556;53.500;10.176;2024-02-23T05:10:56;5.50;1.00
7030;DHT22;3556;53.500;10.176;2024-02-23T05:13:21;5.40;1.00
7030;DHT22;3556;53.500;10.176;2024-02-23T05:15:47;5.40;1.00
7030;DHT22;3556;53.500;10.176;2024-02-23T05:18:12;5.40;1.00
7030;DHT22;3556;53.500;10.176;2024-02-23T05:20:38;5.40;1.00
7030;DHT22;3556;53.500;10.176;2024-02-23T05:23:04;5.40;1.00
7030;DHT22;3556;53.500;10.176;2024-02-23T05:25:30;5.30;1.00
7030;DHT22;3556;53.500;10.176;2024-02-23T05:27:55;5.30;1.00
7030;DHT22;3556;53.500;10.176;2024-02-23T05:30:21;5.30;1.00
7030;DHT22;3556;53.500;10.176;2024-02-23T05:32:47;5.30;1.00
7030;DHT22;3556;53.500;10.176;2024-02-23T05:35:13;5.30;1.00
7030;DHT22;3556;53.500;10.176;2024-02-23T05:37:39;5.30;1.00
7030;DHT22;3556;53.500;10.176;2024-02-23T05:40:05;5.30;1.00
7030;DHT22;3556;53.500;10.176;2024-02-23T05:42:38;5.30;1.00
7030;DHT22;3556;53.500;10.176;2024-02-23T05:45:04;5.30;1.00
7030;DHT22;3556;53.500;10.176;2024-02-23T05:47:40;5.30;1.00
7030;DHT22;3556;53.500;10.176;2024-02-23T05:50:08;5.30;1.00
7030;DHT22;3556;53.500;10.176;2024-02-23T05:52:35;5.30;1.00
7030;DHT22;3556;53.500;10.176;2024-02-23T05:55:02;5.20;1.00
7030;DHT22;3556;53.500;10.176;2024-02-23T05:57:28;5.20;1.00
7030;DHT22;3556;53.500;10.176;2024-02-23T05:59:54;5.20;1.00
7030;DHT22;3556;53.500;10.176;2024-02-23T06:02:21;5.20;1.00
7030;DHT22;3556;53.500;10.176;2024-02-23T06:04:47;5.20;1.00
7030;DHT22;3556;53.500;10.176;2024-02-23T06:07:13;5.20;1.00
7030;DHT22;3556;53.500;10.176;2024-02-23T06:09:41;5.30;99.90
7030;DHT22;3556;53.500;10.176;2024-02-23T06:12:07;5.30;99.90
7030;DHT22;3556;53.500;10.176;2024-02-23T06:14:33;5.30;99.90
7030;DHT22;3556;53.500;10.176;2024-02-23T06:16:58;5.30;99.90
7030;DHT22;3556;53.500;10.176;2024-02-23T06:19:24;5.20;99.90
7030;DHT22;3556;53.500;10.176;2024-02-23T06:21:49;5.20;99.90
7030;DHT22;3556;53.500;10.176;2024-02-23T06:24:16;5.20;99.90
7030;DHT22;3556;53.500;10.176;2024-02-23T06:26:42;5.20;99.90
7030;DHT22;3556;53.500;10.176;2024-02-23T06:29:07;5.20;99.90
7030;DHT22;3556;53.500;10.176;2024-02-23T06:31:40;5.20;99.90
7030;DHT22;3556;53.500;10.176;2024-02-23T06:34:07;5.30;99.90
7030;DHT22;3556;53.500;10.176;2024-02-23T06:36:32;5.30;99.90
7030;DHT22;3556;53.500;10.176;2024-02-23T06:38:58;5.20;99.90
7030;DHT22;3556;53.500;10.176;2024-02-23T06:41:24;5.20;99.90
7030;DHT22;3556;53.500;10.176;2024-02-23T06:43:49;5.10;99.90
7030;DHT22;3556;53.500;10.176;2024-02-23T06:46:19;5.10;1.00
7030;DHT22;3556;53.500;10.176;2024-02-23T06:48:45;5.10;1.00
7030;DHT22;3556;53.500;10.176;2024-02-23T06:51:11;5.10;1.00
7030;DHT22;3556;53.500;10.176;2024-02-23T06:53:36;5.10;1.00
7030;DHT22;3556;53.500;10.176;2024-02-23T06:56:03;5.10;1.00
7030;DHT22;3556;53.500;10.176;2024-02-23T06:58:29;5.20;1.00
7030;DHT22;3556;53.500;10.176;2024-02-23T07:00:54;5.20;1.00
7030;DHT22;3556;53.500;10.176;2024-02-23T07:03:20;5.20;1.00
7030;DHT22;3556;53.500;10.176;2024-02-23T07:05:46;5.30;1.00
7030;DHT22;3556;53.500;10.176;2024-02-23T07:08:12;5.30;1.00
7030;DHT22;3556;53.500;10.176;2024-02-23T07:10:38;5.30;1.00
7030;DHT22;3556;53.500;10.176;2024-02-23T07:13:03;5.30;1.00
7030;DHT22;3556;53.500;10.176;2024-02-23T07:15:29;5.30;1.00
7030;DHT22;3556;53.500;10.176;2024-02-23T07:17:55;5.40;1.00
7030;DHT22;3556;53.500;10.176;2024-02-23T07:20:22;5.40;1.00
7030;DHT22;3556;53.500;10.176;2024-02-23T07:22:48;5.40;1.00
7030;DHT22;3556;53.500;10.176;2024-02-23T07:25:19;5.50;1.00
7030;DHT22;3556;53.500;10.176;2024-02-23T07:27:46;5.60;1.00
7030;DHT22;3556;53.500;10.176;2024-02-23T07:30:12;5.70;1.00
7030;DHT22;3556;53.500;10.176;2024-02-23T07:32:38;5.80;1.00
7030;DHT22;3556;53.500;10.176;2024-02-23T07:35:04;5.90;1.00
7030;DHT22;3556;53.500;10.176;2024-02-23T07:37:30;5.90;1.00
7030;DHT22;3556;53.500;10.176;2024-02-23T07:39:55;6.00;1.00
7030;DHT22;3556;53.500;10.176;2024-02-23T07:42:21;6.00;99.90
7030;DHT22;3556;53.500;10.176;2024-02-23T07:44:47;6.10;95.20
7030;DHT22;3556;53.500;10.176;2024-02-23T07:47:12;6.10;8.50
7030;DHT22;3556;53.500;10.176;2024-02-23T07:49:38;6.20;1.00
7030;DHT22;3556;53.500;10.176;2024-02-23T07:52:06;6.20;1.00
7030;DHT22;3556;53.500;10.176;2024-02-23T07:54:32;6.20;99.90
7030;DHT22;3556;53.500;10.176;2024-02-23T07:56:58;6.20;1.00
7030;DHT22;3556;53.500;10.176;2024-02-23T07:59:24;6.20;99.90
7030;DHT22;3556;53.500;10.176;2024-02-23T08:01:50;6.20;99.90
7030;DHT22;3556;53.500;10.176;2024-02-23T08:04:15;6.20;99.90
7030;DHT22;3556;53.500;10.176;2024-02-23T08:06:41;6.20;1.00
7030;DHT22;3556;53.500;10.176;2024-02-23T08:09:08;6.30;1.00
7030;DHT22;3556;53.500;10.176;2024-02-23T08:11:34;6.20;99.90
7030;DHT22;3556;53.500;10.176;2024-02-23T08:14:00;6.30;1.00
7030;DHT22;3556;53.500;10.176;2024-02-23T08:16:26;6.30;1.00
7030;DHT22;3556;53.500;10.176;2024-02-23T08:18:52;6.30;1.00
7030;DHT22;3556;53.500;10.176;2024-02-23T08:21:18;6.30;1.00
7030;DHT22;3556;53.500;10.176;2024-02-23T08:23:44;6.30;1.00
7030;DHT22;3556;53.500;10.176;2024-02-23T08:26:10;6.40;1.00
7030;DHT22;3556;53.500;10.176;2024-02-23T08:28:36;6.40;1.00
7030;DHT22;3556;53.500;10.176;2024-02-23T08:31:01;6.50;1.00
7030;DHT22;3556;53.500;10.176;2024-02-23T08:33:27;6.60;40.90
7030;DHT22;3556;53.500;10.176;2024-02-23T08:35:52;6.70;1.00
7030;DHT22;3556;53.500;10.176;2024-02-23T08:38:18;6.80;99.90
7030;DHT22;3556;53.500;10.176;2024-02-23T08:40:44;6.80;76.80
7030;DHT22;3556;53.500;10.176;2024-02-23T08:43:10;6.80;99.90
7030;DHT22;3556;53.500;10.176;2024-02-23T08:45:36;6.90;92.80
7030;DHT22;3556;53.500;10.176;2024-02-23T08:48:02;6.90;1.00
7030;DHT22;3556;53.500;10.176;2024-02-23T08:50:29;6.90;99.90
7030;DHT22;3556;53.500;10.176;2024-02-23T08:52:55;7.00;1.00
7030;DHT22;3556;53.500;10.176;2024-02-23T08:55:20;7.10;1.00
7030;DHT22;3556;53.500;10.176;2024-02-23T08:57:47;7.10;1.00
7030;DHT22;3556;53.500;10.176;2024-02-23T09:00:13;7.10;99.90
7030;DHT22;3556;53.500;10.176;2024-02-23T09:02:40;7.10;99.90
7030;DHT22;3556;53.500;10.176;2024-02-23T09:05:08;7.10;1.00
7030;DHT22;3556;53.500;10.176;2024-02-23T09:07:34;7.20;1.00
7030;DHT22;3556;53.500;10.176;2024-02-23T09:09:59;7.20;1.00
7030;DHT22;3556;53.500;10.176;2024-02-23T09:12:25;7.20;99.90
7030;DHT22;3556;53.500;10.176;2024-02-23T09:14:51;7.20;99.90
7030;DHT22;3556;53.500;10.176;2024-02-23T09:17:17;7.40;1.00
7030;DHT22;3556;53.500;10.176;2024-02-23T09:19:44;7.40;99.90
7030;DHT22;3556;53.500;10.176;2024-02-23T09:22:09;7.40;99.90
7030;DHT22;3556;53.500;10.176;2024-02-23T09:24:38;7.50;99.90
7030;DHT22;3556;53.500;10.176;2024-02-23T09:27:04;7.50;1.00
7030;DHT22;3556;53.500;10.176;2024-02-23T09:29:29;7.50;1.00
7030;DHT22;3556;53.500;10.176;2024-02-23T09:31:55;7.40;1.00
7030;DHT22;3556;53.500;10.176;2024-02-23T09:34:21;7.40;1.00
7030;DHT22;3556;53.500;10.176;2024-02-23T09:36:46;7.40;83.60
7030;DHT22;3556;53.500;10.176;2024-02-23T09:39:12;7.40;1.00
7030;DHT22;3556;53.500;10.176;2024-02-23T09:41:39;7.40;1.00
7030;DHT22;3556;53.500;10.176;2024-02-23T09:44:05;7.40;99.90
7030;DHT22;3556;53.500;10.176;2024-02-23T09:46:33;7.50;1.00
7030;DHT22;3556;53.500;10.176;2024-02-23T09:48:59;7.50;22.10
7030;DHT22;3556;53.500;10.176;2024-02-23T09:51:25;7.60;1.00
7030;DHT22;3556;53.500;10.176;2024-02-23T09:53:51;7.60;99.90
7030;DHT22;3556;53.500;10.176;2024-02-23T09:56:17;7.70;1.00
7030;DHT22;3556;53.500;10.176;2024-02-23T09:58:46;7.70;1.00
7030;DHT22;3556;53.500;10.176;2024-02-23T10:01:18;7.70;1.00
7030;DHT22;3556;53.500;10.176;2024-02-23T10:03:46;7.70;1.00
7030;DHT22;3556;53.500;10.176;2024-02-23T10:06:12;7.70;1.00
7030;DHT22;3556;53.500;10.176;2024-02-23T10:08:38;7.80;8.40
7030;DHT22;3556;53.500;10.176;2024-02-23T10:11:03;7.80;1.00
7030;DHT22;3556;53.500;10.176;2024-02-23T10:13:29;7.90;99.90
7030;DHT22;3556;53.500;10.176;2024-02-23T10:15:55;7.90;1.00
7030;DHT22;3556;53.500;10.176;2024-02-23T10:18:21;8.00;99.90
7030;DHT22;3556;53.500;10.176;2024-02-23T10:20:47;8.00;99.90
7030;DHT22;3556;53.500;10.176;2024-02-23T10:23:13;8.00;99.90
7030;DHT22;3556;53.500;10.176;2024-02-23T10:25:38;8.10;99.90
7030;DHT22;3556;53.500;10.176;2024-02-23T10:28:05;8.30;99.90
7030;DHT22;3556;53.500;10.176;2024-02-23T10:30:31;8.40;1.00
7030;DHT22;3556;53.500;10.176;2024-02-23T10:32:58;8.50;18.70
7030;DHT22;3556;53.500;10.176;2024-02-23T10:35:24;8.50;1.00
7030;DHT22;3556;53.500;10.176;2024-02-23T10:37:51;8.40;1.00
7030;DHT22;3556;53.500;10.176;2024-02-23T10:40:19;8.50;1.00
7030;DHT22;3556;53.500;10.176;2024-02-23T10:42:46;8.60;1.00
7030;DHT22;3556;53.500;10.176;2024-02-23T10:45:20;8.60;1.00
7030;DHT22;3556;53.500;10.176;2024-02-23T10:47:48;8.60;1.00
7030;DHT22;3556;53.500;10.176;2024-02-23T10:50:14;8.70;1.00
7030;DHT22;3556;53.500;10.176;2024-02-23T10:52:42;8.60;1.00
7030;DHT22;3556;53.500;10.176;2024-02-23T10:55:11;8.70;1.00
7030;DHT22;3556;53.500;10.176;2024-02-23T10:57:37;8.80;1.00
7030;DHT22;3556;53.500;10.176;2024-02-23T11:00:04;8.90;1.00
7030;DHT22;3556;53.500;10.176;2024-02-23T11:02:36;8.80;1.00
7030;DHT22;3556;53.500;10.176;2024-02-23T11:05:04;8.70;1.00
7030;DHT22;3556;53.500;10.176;2024-02-23T11:07:30;8.70;99.90
7030;DHT22;3556;53.500;10.176;2024-02-23T11:09:59;8.60;99.90
7030;DHT22;3556;53.500;10.176;2024-02-23T11:12:29;8.60;99.90
7030;DHT22;3556;53.500;10.176;2024-02-23T11:14:59;8.60;99.90
7030;DHT22;3556;53.500;10.176;2024-02-23T11:17:30;8.60;99.90
7030;DHT22;3556;53.500;10.176;2024-02-23T11:19:56;8.50;99.90
7030;DHT22;3556;53.500;10.176;2024-02-23T11:22:26;8.50;99.90
7030;DHT22;3556;53.500;10.176;2024-02-23T11:24:53;8.50;99.90
7030;DHT22;3556;53.500;10.176;2024-02-23T11:27:18;8.50;99.90
7030;DHT22;3556;53.500;10.176;2024-02-23T11:29:47;8.50;99.90
7030;DHT22;3556;53.500;10.176;2024-02-23T11:32:17;8.50;99.90
7030;DHT22;3556;53.500;10.176;2024-02-23T11:35:04;8.50;99.90
7030;DHT22;3556;53.500;10.176;2024-02-23T11:37:31;8.50;99.90
7030;DHT22;3556;53.500;10.176;2024-02-23T11:39:57;8.50;99.90
7030;DHT22;3556;53.500;10.176;2024-02-23T11:42:27;8.50;99.90
7030;DHT22;3556;53.500;10.176;2024-02-23T11:44:53;8.50;99.90
7030;DHT22;3556;53.500;10.176;2024-02-23T11:47:21;8.50;99.90
7030;DHT22;3556;53.500;10.176;2024-02-23T11:49:47;8.40;99.90
7030;DHT22;3556;53.500;10.176;2024-02-23T11:52:12;8.50;99.90
7030;DHT22;3556;53.500;10.176;2024-02-23T11:54:38;8.50;99.90
7030;DHT22;3556;53.500;10.176;2024-02-23T11:57:04;8.50;99.90
7030;DHT22;3556;53.500;10.176;2024-02-23T11:59:30;8.50;99.90
7030;DHT22;3556;53.500;10.176;2024-02-23T12:01:55;8.50;99.90
7030;DHT22;3556;53.500;10.176;2024-02-23T12:04:21;8.60;99.90
7030;DHT22;3556;53.500;10.176;2024-02-23T12:06:47;8.60;99.90
7030;DHT22;3556;53.500;10.176;2024-02-23T12:09:13;8.60;91.50
7030;DHT22;3556;53.500;10.176;2024-02-23T12:11:39;8.60;99.90
7030;DHT22;3556;53.500;10.176;2024-02-23T12:14:05;8.60;99.90
7030;DHT22;3556;53.500;10.176;2024-02-23T12:16:35;8.60;99.90
7030;DHT22;3556;53.500;10.176;2024-02-23T12:19:01;8.60;99.90
7030;DHT22;3556;53.500;10.176;2024-02-23T12:21:28;8.70;99.90
7030;DHT22;3556;53.500;10.176;2024-02-23T12:23:53;8.70;52.80
7030;DHT22;3556;53.500;10.176;2024-02-23T12:26:20;8.70;99.90
7030;DHT22;3556;53.500;10.176;2024-02-23T12:28:46;8.70;74.00
7030;DHT22;3556;53.500;10.176;2024-02-23T12:31:12;8.70;99.90
7030;DHT22;3556;53.500;10.176;2024-02-23T12:33:40;8.70;24.70
7030;DHT22;3556;53.500;10.176;2024-02-23T12:36:07;8.70;99.90
7030;DHT22;3556;53.500;10.176;2024-02-23T12:38:33;8.60;99.90
7030;DHT22;3556;53.500;10.176;2024-02-23T12:41:00;8.70;53.00
7030;DHT22;3556;53.500;10.176;2024-02-23T12:43:26;8.90;68.20
7030;DHT22;3556;53.500;10.176;2024-02-23T12:45:55;8.90;1.00
7030;DHT22;3556;53.500;10.176;2024-02-23T12:48:22;9.00;1.00
7030;DHT22;3556;53.500;10.176;2024-02-23T12:50:48;9.00;9.40
7030;DHT22;3556;53.500;10.176;2024-02-23T12:53:35;9.00;77.10
7030;DHT22;3556;53.500;10.176;2024-02-23T12:56:08;9.00;29.40
7030;DHT22;3556;53.500;10.176;2024-02-23T12:58:35;8.90;99.90
7030;DHT22;3556;53.500;10.176;2024-02-23T13:01:01;8.90;14.00
7030;DHT22;3556;53.500;10.176;2024-02-23T13:03:28;8.90;1.00
7030;DHT22;3556;53.500;10.176;2024-02-23T13:05:55;8.90;1.00
7030;DHT22;3556;53.500;10.176;2024-02-23T13:08:21;8.90;27.40
7030;DHT22;3556;53.500;10.176;2024-02-23T13:10:48;9.00;72.10
7030;DHT22;3556;53.500;10.176;2024-02-23T13:13:13;9.00;1.00
7030;DHT22;3556;53.500;10.176;2024-02-23T13:15:46;9.00;1.00
7030;DHT22;3556;53.500;10.176;2024-02-23T13:18:12;9.00;1.00
7030;DHT22;3556;53.500;10.176;2024-02-23T13:20:38;9.00;1.00
7030;DHT22;3556;53.500;10.176;2024-02-23T13:23:05;9.00;1.00
7030;DHT22;3556;53.500;10.176;2024-02-23T13:25:32;9.00;3.50
7030;DHT22;3556;53.500;10.176;2024-02-23T13:27:58;9.10;28.00
7030;DHT22;3556;53.500;10.176;2024-02-23T13:30:23;9.10;4.80
7030;DHT22;3556;53.500;10.176;2024-02-23T13:32:49;9.10;1.00
7030;DHT22;3556;53.500;10.176;2024-02-23T13:35:15;9.10;1.00
7030;DHT22;3556;53.500;10.176;2024-02-23T13:37:42;9.10;1.00
7030;DHT22;3556;53.500;10.176;2024-02-23T13:40:09;9.10;23.60
7030;DHT22;3556;53.500;10.176;2024-02-23T13:42:35;9.00;43.80
7030;DHT22;3556;53.500;10.176;2024-02-23T13:45:01;9.00;99.90
7030;DHT22;3556;53.500;10.176;2024-02-23T13:47:27;9.00;1.00
7030;DHT22;3556;53.500;10.176;2024-02-23T13:49:52;9.00;1.00
7030;DHT22;3556;53.500;10.176;2024-02-23T13:52:18;9.00;1.00
7030;DHT22;3556;53.500;10.176;2024-02-23T13:54:43;9.00;1.00
7030;DHT22;3556;53.500;10.176;2024-02-23T13:57:09;9.00;1.00
7030;DHT22;3556;53.500;10.176;2024-02-23T13:59:34;8.90;23.80
7030;DHT22;3556;53.500;10.176;2024-02-23T14:02:00;8.90;1.00
7030;DHT22;3556;53.500;10.176;2024-02-23T14:04:26;8.80;1.00
7030;DHT22;3556;53.500;10.176;2024-02-23T14:06:51;8.80;27.20
7030;DHT22;3556;53.500;10.176;2024-02-23T14:09:17;8.80;49.30
7030;DHT22;3556;53.500;10.176;2024-02-23T14:11:43;8.70;1.00
7030;DHT22;3556;53.500;10.176;2024-02-23T14:14:10;8.80;52.60
7030;DHT22;3556;53.500;10.176;2024-02-23T14:16:36;8.80;1.00
7030;DHT22;3556;53.500;10.176;2024-02-23T14:19:02;8.80;1.00
7030;DHT22;3556;53.500;10.176;2024-02-23T14:21:27;8.80;8.10
7030;DHT22;3556;53.500;10.176;2024-02-23T14:23:53;8.90;1.00
7030;DHT22;3556;53.500;10.176;2024-02-23T14:26:18;8.90;1.00
7030;DHT22;3556;53.500;10.176;2024-02-23T14:28:44;8.90;29.60
7030;DHT22;3556;53.500;10.176;2024-02-23T14:31:10;8.90;8.60
7030;DHT22;3556;53.500;10.176;2024-02-23T14:33:35;9.00;1.00
7030;DHT22;3556;53.500;10.176;2024-02-23T14:36:01;9.00;1.00
7030;DHT22;3556;53.500;10.176;2024-02-23T14:38:26;9.00;1.00
7030;DHT22;3556;53.500;10.176;2024-02-23T14:40:52;9.00;23.90
7030;DHT22;3556;53.500;10.176;2024-02-23T14:43:18;9.00;1.00
7030;DHT22;3556;53.500;10.176;2024-02-23T14:45:44;9.10;3.80
7030;DHT22;3556;53.500;10.176;2024-02-23T14:48:09;9.60;78.80
7030;DHT22;3556;53.500;10.176;2024-02-23T14:50:35;10.00;1.00
7030;DHT22;3556;53.500;10.176;2024-02-23T14:53:01;10.20;1.00
7030;DHT22;3556;53.500;10.176;2024-02-23T14:55:26;10.20;1.00
7030;DHT22;3556;53.500;10.176;2024-02-23T14:57:52;10.10;1.00
7030;DHT22;3556;53.500;10.176;2024-02-23T15:00:18;10.10;1.00
7030;DHT22;3556;53.500;10.176;2024-02-23T15:02:44;10.00;1.00
7030;DHT22;3556;53.500;10.176;2024-02-23T15:05:10;9.90;1.00
7030;DHT22;3556;53.500;10.176;2024-02-23T15:07:35;9.80;1.00
7030;DHT22;3556;53.500;10.176;2024-02-23T15:10:03;9.70;1.00
7030;DHT22;3556;53.500;10.176;2024-02-23T15:12:34;9.60;1.00
7030;DHT22;3556;53.500;10.176;2024-02-23T15:15:00;9.50;1.00
7030;DHT22;3556;53.500;10.176;2024-02-23T15:17:25;9.40;1.00
7030;DHT22;3556;53.500;10.176;2024-02-23T15:19:51;9.40;1.00
7030;DHT22;3556;53.500;10.176;2024-02-23T15:22:16;9.30;1.00
7030;DHT22;3556;53.500;10.176;2024-02-23T15:24:44;9.30;1.00
7030;DHT22;3556;53.500;10.176;2024-02-23T15:27:15;9.30;26.90
7030;DHT22;3556;53.500;10.176;2024-02-23T15:29:40;9.20;1.00
7030;DHT22;3556;53.500;10.176;2024-02-23T15:32:06;9.20;25.70
7030;DHT22;3556;53.500;10.176;2024-02-23T15:34:32;9.20;20.60
7030;DHT22;3556;53.500;10.176;2024-02-23T15:36:58;9.10;55.50
7030;DHT22;3556;53.500;10.176;2024-02-23T15:39:24;9.00;81.60
7030;DHT22;3556;53.500;10.176;2024-02-23T15:41:49;9.00;89.00
7030;DHT22;3556;53.500;10.176;2024-02-23T15:44:15;9.00;99.90
7030;DHT22;3556;53.500;10.176;2024-02-23T15:46:41;8.90;95.10
7030;DHT22;3556;53.500;10.176;2024-02-23T15:49:07;9.00;85.90
7030;DHT22;3556;53.500;10.176;2024-02-23T15:51:32;9.00;92.90
7030;DHT22;3556;53.500;10.176;2024-02-23T15:54:02;8.90;71.60
7030;DHT22;3556;53.500;10.176;2024-02-23T15:56:28;8.90;26.90
7030;DHT22;3556;53.500;10.176;2024-02-23T15:58:53;8.90;37.40
7030;DHT22;3556;53.500;10.176;2024-02-23T16:01:20;8.90;40.30
7030;DHT22;3556;53.500;10.176;2024-02-23T16:03:45;8.90;24.20